Open Full Screen Window  High Contrast Mode
Wind Gusting 00 knots
06
July 24, 2017 12:42 PM EDT
Weather Information
Wind Direction
  020 °
Wind Speed
  06 kt (7 mph)
Wind Gust
  00 kt (0 mph)
Variable Wind
330°
080°
Altimeter
29.96 in
Visibility
10 SM
Temperature
26° C
79° F
Dewpoint
18° C
64° F
Humidity
61%
1hr Rain Fall
00.00 in.
24hr Rain Fall
00.01 in.
Sky Condition
Clear
VFR

METAR KI19 241642Z AUTO 02006KT 330V080 10SM CLR 26/18 A2996 RMK AO2 T02630181

*Background is not an actual portrayal of the airport.